createdAt,value
2023-04-15T00:00:58.612Z,7.00
2023-04-15T00:03:27.060Z,8.47
2023-04-15T00:05:55.762Z,5.70
2023-04-15T00:08:24.597Z,6.47
2023-04-15T00:10:54.859Z,8.87
2023-04-15T00:13:23.104Z,7.23
2023-04-15T00:15:51.453Z,7.37
2023-04-15T00:18:19.759Z,6.53
2023-04-15T00:20:47.990Z,7.53
2023-04-15T00:23:16.242Z,8.23
2023-04-15T00:25:44.694Z,6.07
2023-04-15T00:28:14.353Z,11.13
2023-04-15T00:30:42.755Z,9.67
2023-04-15T00:33:11.176Z,7.90
2023-04-15T00:35:39.466Z,6.20
2023-04-15T00:38:08.467Z,7.73
2023-04-15T00:40:36.839Z,7.37
2023-04-15T00:43:06.059Z,6.27
2023-04-15T00:45:35.724Z,5.77
2023-04-15T00:48:04.551Z,7.23
2023-04-15T00:50:32.977Z,6.87
2023-04-15T00:53:01.260Z,5.63
2023-04-15T00:55:29.550Z,7.10
2023-04-15T00:57:58.558Z,8.43
2023-04-15T01:00:26.950Z,6.00
2023-04-15T01:02:56.941Z,4.57
2023-04-15T01:05:25.807Z,5.80
2023-04-15T01:07:54.147Z,6.07
2023-04-15T01:10:22.580Z,3.93
2023-04-15T01:12:51.465Z,4.43
2023-04-15T01:15:20.556Z,4.40
2023-04-15T01:17:49.585Z,4.97
2023-04-15T01:20:19.618Z,5.30
2023-04-15T01:22:48.135Z,5.90
2023-04-15T01:25:21.802Z,5.23
2023-04-15T01:27:51.752Z,5.80
2023-04-15T01:30:20.424Z,6.27
2023-04-15T01:32:48.978Z,5.63
2023-04-15T01:35:17.669Z,4.90
2023-04-15T01:37:46.852Z,6.03
2023-04-15T01:40:15.611Z,7.87
2023-04-15T01:42:44.144Z,4.50
2023-04-15T01:45:14.736Z,5.37
2023-04-15T01:47:43.828Z,6.67
2023-04-15T01:50:13.233Z,6.63
2023-04-15T01:52:42.055Z,6.83
2023-04-15T01:55:11.271Z,7.63
2023-04-15T01:57:40.062Z,4.83
2023-04-15T02:00:09.743Z,6.87
2023-04-15T02:02:40.312Z,5.90
2023-04-15T02:05:09.930Z,5.90
2023-04-15T02:07:38.600Z,7.00
2023-04-15T02:10:08.041Z,6.13
2023-04-15T02:12:37.015Z,6.30
2023-04-15T02:15:06.083Z,4.03
2023-04-15T02:17:36.582Z,4.83
2023-04-15T02:20:07.429Z,3.90
2023-04-15T02:22:35.957Z,3.53
2023-04-15T02:25:04.597Z,4.00
2023-04-15T02:27:33.058Z,4.23
2023-04-15T02:30:01.931Z,5.33
2023-04-15T02:32:30.532Z,4.40
2023-04-15T02:35:03.537Z,4.10
2023-04-15T02:37:36.631Z,4.17
2023-04-15T02:40:05.593Z,4.10
2023-04-15T02:42:34.078Z,3.30
2023-04-15T02:45:02.707Z,3.23
2023-04-15T02:47:31.433Z,3.93
2023-04-15T02:50:01.064Z,4.37
2023-04-15T02:52:29.560Z,4.63
2023-04-15T02:55:00.851Z,3.13
2023-04-15T02:57:29.779Z,3.53
2023-04-15T02:59:58.039Z,4.03
2023-04-15T03:02:26.652Z,3.70
2023-04-15T03:04:56.478Z,3.30
2023-04-15T03:07:24.748Z,3.23
2023-04-15T03:09:53.078Z,2.73
2023-04-15T03:12:22.773Z,3.33
2023-04-15T03:14:51.006Z,3.27
2023-04-15T03:17:19.421Z,2.97
2023-04-15T03:19:47.763Z,4.80
2023-04-15T03:22:16.048Z,5.53
2023-04-15T03:24:44.347Z,4.27
2023-04-15T03:27:13.328Z,3.43
2023-04-15T03:29:42.977Z,2.50
2023-04-15T03:32:11.435Z,3.73
2023-04-15T03:34:39.651Z,3.13
2023-04-15T03:37:07.942Z,3.50
2023-04-15T03:39:36.303Z,3.97
2023-04-15T03:42:04.705Z,4.23
2023-04-15T03:44:32.945Z,4.77
2023-04-15T03:47:02.718Z,3.30
2023-04-15T03:49:31.297Z,3.80
2023-04-15T03:51:59.786Z,4.23
2023-04-15T03:54:28.009Z,3.60
2023-04-15T03:56:56.956Z,2.83
2023-04-15T03:59:25.482Z,4.70
2023-04-15T04:01:53.852Z,3.40
2023-04-15T04:04:23.766Z,3.30
2023-04-15T04:06:52.058Z,2.80
2023-04-15T04:09:20.273Z,3.40
2023-04-15T04:11:48.619Z,3.47
2023-04-15T04:14:17.003Z,3.47
2023-04-15T04:16:45.403Z,2.97
2023-04-15T04:19:14.832Z,5.23
2023-04-15T04:21:44.493Z,3.77
2023-04-15T04:24:13.012Z,2.83
2023-04-15T04:26:41.397Z,3.30
2023-04-15T04:29:09.672Z,2.50
2023-04-15T04:31:37.908Z,2.90
2023-04-15T04:34:06.254Z,2.43
2023-04-15T04:36:34.467Z,3.17
2023-04-15T04:39:04.374Z,3.90
2023-04-15T04:41:32.627Z,3.43
2023-04-15T04:44:00.928Z,2.43
2023-04-15T04:46:30.538Z,2.23
2023-04-15T04:48:58.829Z,2.50
2023-04-15T04:51:28.134Z,3.37
2023-04-15T04:53:57.165Z,2.50
2023-04-15T04:56:27.135Z,2.50
2023-04-15T04:58:55.690Z,3.53
2023-04-15T05:01:24.055Z,2.83
2023-04-15T05:03:52.403Z,3.67
2023-04-15T05:06:20.747Z,2.50
2023-04-15T05:08:49.134Z,2.53
2023-04-15T05:11:17.419Z,2.40
2023-04-15T05:13:47.040Z,3.93
2023-04-15T05:16:15.446Z,2.53
2023-04-15T05:18:43.898Z,2.20
2023-04-15T05:21:12.565Z,2.83
2023-04-15T05:23:41.403Z,2.93
2023-04-15T05:26:09.702Z,2.50
2023-04-15T05:28:37.972Z,3.03
2023-04-15T05:31:08.752Z,3.37
2023-04-15T05:33:37.781Z,2.93
2023-04-15T05:36:06.496Z,3.53
2023-04-15T05:38:34.784Z,3.90
2023-04-15T05:41:03.109Z,2.47
2023-04-15T05:43:31.717Z,3.47
2023-04-15T05:46:00.181Z,3.43
2023-04-15T05:48:29.874Z,4.07
2023-04-15T05:50:58.290Z,2.60
2023-04-15T05:53:26.791Z,3.77
2023-04-15T05:55:55.031Z,3.10
2023-04-15T05:58:23.258Z,2.50
2023-04-15T06:00:51.615Z,3.10
2023-04-15T06:03:20.104Z,3.13
2023-04-15T06:05:49.941Z,2.63
2023-04-15T06:08:19.044Z,2.90
2023-04-15T06:10:47.356Z,3.43
2023-04-15T06:13:16.982Z,3.57
2023-04-15T06:15:45.253Z,2.93
2023-04-15T06:18:13.596Z,2.87
2023-04-15T06:20:42.009Z,3.43
2023-04-15T06:23:11.714Z,5.00
2023-04-15T06:25:39.963Z,2.30
2023-04-15T06:28:08.613Z,2.63
2023-04-15T06:30:37.189Z,3.77
2023-04-15T06:33:06.385Z,3.30
2023-04-15T06:35:34.784Z,2.43
2023-04-15T06:38:03.094Z,3.40
2023-04-15T06:40:33.880Z,2.27
2023-04-15T06:43:02.149Z,2.73
2023-04-15T06:45:30.516Z,5.60
2023-04-15T06:47:58.923Z,2.87
2023-04-15T06:50:27.317Z,3.43
2023-04-15T06:52:55.984Z,3.77
2023-04-15T06:55:24.529Z,4.83
2023-04-15T06:57:54.149Z,3.10
2023-04-15T07:00:22.527Z,4.80
2023-04-15T07:02:51.441Z,3.20
2023-04-15T07:05:20.208Z,4.20
2023-04-15T07:07:48.567Z,3.43
2023-04-15T07:10:17.192Z,2.47
2023-04-15T07:12:45.919Z,2.77
2023-04-15T07:15:15.716Z,2.13
2023-04-15T07:17:44.451Z,7.07
2023-04-15T07:20:14.177Z,10.57
2023-04-15T07:22:42.424Z,7.50
2023-04-15T07:25:11.246Z,5.53
2023-04-15T07:27:39.623Z,2.97
2023-04-15T07:30:09.262Z,3.20
2023-04-15T07:32:38.896Z,3.00
2023-04-15T07:35:07.913Z,3.07
2023-04-15T07:37:36.350Z,3.87
2023-04-15T07:40:07.549Z,2.47
2023-04-15T07:42:37.128Z,3.33
2023-04-15T07:45:07.098Z,5.90
2023-04-15T07:47:35.353Z,16.00
2023-04-15T07:50:05.458Z,26.47
2023-04-15T07:52:39.166Z,25.43
2023-04-15T07:55:08.631Z,20.03
2023-04-15T07:57:37.130Z,15.13
2023-04-15T08:00:07.809Z,11.00
2023-04-15T08:02:38.180Z,10.43
2023-04-15T08:05:10.799Z,11.03
2023-04-15T08:07:39.738Z,6.17
2023-04-15T08:10:09.411Z,3.80
2023-04-15T08:12:38.057Z,3.17
2023-04-15T08:15:08.241Z,4.33
2023-04-15T08:17:36.686Z,4.57
2023-04-15T08:20:06.489Z,4.00
2023-04-15T08:22:36.531Z,3.43
2023-04-15T08:25:05.436Z,2.90
2023-04-15T08:27:33.769Z,2.33
2023-04-15T08:30:04.695Z,2.20
2023-04-15T08:32:33.557Z,3.87
2023-04-15T08:35:01.954Z,4.20
2023-04-15T08:37:30.164Z,4.40
2023-04-15T08:39:59.794Z,3.40
2023-04-15T08:42:32.949Z,3.47
2023-04-15T08:45:02.765Z,4.37
2023-04-15T08:47:32.931Z,3.27
2023-04-15T08:50:04.625Z,4.57
2023-04-15T08:52:33.388Z,5.23
2023-04-15T08:55:05.360Z,4.47
2023-04-15T08:57:34.970Z,3.90
2023-04-15T09:00:05.952Z,4.50
2023-04-15T09:02:34.797Z,4.63
2023-04-15T09:05:05.160Z,4.20
2023-04-15T09:07:35.891Z,4.13
2023-04-15T09:10:07.481Z,3.80
2023-04-15T09:12:37.182Z,3.83
2023-04-15T09:15:06.528Z,3.60
2023-04-15T09:17:35.751Z,3.40
2023-04-15T09:20:11.456Z,3.23
2023-04-15T09:22:40.865Z,3.37
2023-04-15T09:25:27.765Z,3.87
2023-04-15T09:27:57.677Z,3.40
2023-04-15T09:30:26.158Z,2.63
2023-04-15T09:32:56.654Z,2.43
2023-04-15T09:35:26.466Z,2.40
2023-04-15T09:38:02.979Z,2.60
2023-04-15T09:40:37.280Z,3.00
2023-04-15T09:43:06.370Z,2.53
2023-04-15T09:45:35.828Z,2.70
2023-04-15T09:48:17.675Z,2.83
2023-04-15T09:50:46.230Z,3.90
2023-04-15T09:53:19.186Z,2.67
2023-04-15T09:55:52.108Z,3.97
2023-04-15T09:58:21.518Z,4.03
2023-04-15T10:00:51.142Z,3.83
2023-04-15T10:03:22.567Z,2.93
2023-04-15T10:05:52.435Z,2.77
2023-04-15T10:08:21.963Z,2.70
2023-04-15T10:10:52.777Z,3.53
2023-04-15T10:13:23.733Z,3.73
2023-04-15T10:15:57.253Z,2.67
2023-04-15T10:18:27.624Z,2.53
2023-04-15T10:20:56.545Z,2.67
2023-04-15T10:23:25.961Z,3.07
2023-04-15T10:25:56.442Z,2.10
2023-04-15T10:28:25.011Z,2.73
2023-04-15T10:30:54.661Z,2.57
2023-04-15T10:33:25.064Z,2.93
2023-04-15T10:35:55.660Z,3.63
2023-04-15T10:38:34.369Z,3.27
2023-04-15T10:41:25.995Z,2.80
2023-04-15T10:43:56.005Z,3.70
2023-04-15T10:46:25.926Z,2.50
2023-04-15T10:48:55.202Z,4.97
2023-04-15T10:51:31.716Z,2.60
2023-04-15T10:54:01.089Z,3.30
2023-04-15T10:56:32.041Z,2.33
2023-04-15T10:59:07.538Z,2.93
2023-04-15T11:01:57.720Z,2.27
2023-04-15T11:04:54.729Z,2.23
2023-04-15T11:07:37.047Z,2.03
2023-04-15T11:10:07.745Z,2.70
2023-04-15T11:12:38.807Z,2.93
2023-04-15T11:15:30.819Z,1.02
2023-04-15T11:18:00.564Z,2.00
2023-04-15T11:20:29.033Z,1.35
2023-04-15T11:23:08.247Z,1.65
2023-04-15T11:25:43.805Z,1.80
2023-04-15T11:28:14.936Z,3.80
2023-04-15T11:30:44.851Z,2.25
2023-04-15T11:33:14.134Z,2.40
2023-04-15T11:35:43.366Z,1.55
2023-04-15T11:38:14.365Z,2.30
2023-04-15T11:40:46.146Z,1.10
2023-04-15T11:43:20.315Z,2.25
2023-04-15T11:45:54.295Z,2.45
2023-04-15T11:48:24.750Z,2.13
2023-04-15T11:50:57.564Z,3.03
2023-04-15T11:53:26.557Z,2.30
2023-04-15T11:55:56.011Z,1.80
2023-04-15T11:58:27.998Z,1.75
2023-04-15T12:00:58.876Z,2.08
2023-04-15T12:03:28.935Z,1.92
2023-04-15T12:06:24.765Z,1.50
2023-04-15T12:09:01.675Z,1.73
2023-04-15T12:11:38.009Z,1.75
2023-04-15T12:14:10.730Z,1.65
2023-04-15T12:16:48.734Z,2.05
2023-04-15T12:19:20.749Z,1.92
2023-04-15T12:21:52.824Z,2.35
2023-04-15T12:24:23.825Z,1.10
2023-04-15T12:26:54.090Z,2.38
2023-04-15T12:29:27.877Z,1.95
2023-04-15T12:31:57.929Z,1.70
2023-04-15T12:34:31.411Z,1.13
2023-04-15T12:37:01.514Z,2.00
2023-04-15T12:39:32.112Z,1.75
2023-04-15T12:42:01.766Z,0.98
2023-04-15T12:44:31.676Z,1.77
2023-04-15T12:47:01.938Z,1.40
2023-04-15T12:49:30.851Z,2.72
2023-04-15T12:52:01.316Z,1.63
2023-04-15T12:54:30.027Z,3.40
2023-04-15T12:56:59.703Z,1.52
2023-04-15T12:59:28.257Z,3.95
2023-04-15T13:01:58.531Z,2.97
2023-04-15T13:04:30.872Z,3.65
2023-04-15T13:06:59.877Z,4.43
2023-04-15T13:09:28.331Z,2.63
2023-04-15T13:11:57.678Z,2.65
2023-04-15T13:14:26.185Z,2.13
2023-04-15T13:16:55.085Z,1.92
2023-04-15T13:19:24.749Z,2.15
2023-04-15T13:21:53.463Z,1.77
2023-04-15T13:24:21.758Z,2.30
2023-04-15T13:26:50.485Z,1.58
2023-04-15T13:29:18.889Z,2.03
2023-04-15T13:31:47.266Z,2.42
2023-04-15T13:34:15.744Z,2.22
2023-04-15T13:36:46.927Z,2.38
2023-04-15T13:39:15.647Z,1.38
2023-04-15T13:41:43.944Z,3.15
2023-04-15T13:44:12.424Z,1.40
2023-04-15T13:46:41.963Z,1.30
2023-04-15T13:49:10.273Z,1.20
2023-04-15T13:51:38.676Z,1.92
2023-04-15T13:54:08.458Z,1.27
2023-04-15T13:56:36.729Z,3.28
2023-04-15T13:59:06.694Z,1.35
2023-04-15T14:01:35.959Z,2.38
2023-04-15T14:04:04.792Z,1.83
2023-04-15T14:06:33.527Z,2.10
2023-04-15T14:09:02.040Z,0.80
2023-04-15T14:11:31.899Z,1.20
2023-04-15T14:14:00.198Z,1.20
2023-04-15T14:16:29.000Z,1.98
2023-04-15T14:18:58.685Z,1.50
2023-04-15T14:21:28.131Z,1.42
2023-04-15T14:23:57.464Z,1.17
2023-04-15T14:26:26.606Z,1.55
2023-04-15T14:28:57.169Z,1.63
2023-04-15T14:31:25.549Z,1.10
2023-04-15T14:33:55.604Z,1.65
2023-04-15T14:36:23.936Z,1.27
2023-04-15T14:38:52.559Z,1.33
2023-04-15T14:41:20.863Z,2.55
2023-04-15T14:43:49.407Z,0.85
2023-04-15T14:46:19.122Z,1.10
2023-04-15T14:48:47.607Z,1.73
2023-04-15T14:51:16.470Z,1.58
2023-04-15T14:53:45.017Z,1.63
2023-04-15T14:56:13.419Z,2.55
2023-04-15T14:58:41.860Z,1.73
2023-04-15T15:01:10.576Z,1.45
2023-04-15T15:03:41.001Z,1.50
2023-04-15T15:06:09.583Z,2.83
2023-04-15T15:08:38.018Z,3.50
2023-04-15T15:11:06.467Z,5.10
2023-04-15T15:13:34.790Z,4.78
2023-04-15T15:16:03.955Z,5.18
2023-04-15T15:18:32.525Z,4.90
2023-04-15T15:21:02.496Z,6.38
2023-04-15T15:23:31.114Z,5.30
2023-04-15T15:26:00.164Z,8.70
2023-04-15T15:28:28.616Z,16.77
2023-04-15T15:30:56.976Z,16.85
2023-04-15T15:33:25.332Z,16.13
2023-04-15T15:35:53.681Z,11.65
2023-04-15T15:38:23.969Z,8.15
2023-04-15T15:40:52.339Z,5.70
2023-04-15T15:43:20.726Z,5.15
2023-04-15T15:45:51.794Z,6.90
2023-04-15T15:48:20.573Z,6.85
2023-04-15T15:50:48.930Z,8.73
2023-04-15T15:53:20.846Z,7.00
2023-04-15T15:55:52.619Z,8.35
2023-04-15T15:58:22.232Z,7.90
2023-04-15T16:00:50.668Z,8.98
2023-04-15T16:03:19.405Z,6.35
2023-04-15T16:05:48.123Z,7.15
2023-04-15T16:08:16.781Z,11.80
2023-04-15T16:10:45.819Z,14.30
2023-04-15T16:13:15.597Z,12.38
2023-04-15T16:15:44.078Z,10.18
2023-04-15T16:18:12.348Z,10.60
2023-04-15T16:20:40.765Z,12.27
2023-04-15T16:23:13.301Z,11.13
2023-04-15T16:25:43.761Z,10.13
2023-04-15T16:28:24.976Z,6.90
2023-04-15T16:30:55.484Z,6.35
2023-04-15T16:33:23.883Z,6.68
2023-04-15T16:35:52.703Z,9.23
2023-04-15T16:38:21.160Z,12.02
2023-04-15T16:40:49.718Z,10.82
2023-04-15T16:43:18.073Z,18.60
2023-04-15T16:45:51.032Z,17.85
2023-04-15T16:48:21.738Z,13.80
2023-04-15T16:50:50.136Z,15.40
2023-04-15T16:53:18.547Z,12.80
2023-04-15T16:55:46.798Z,8.43
2023-04-15T16:58:15.534Z,6.97
2023-04-15T17:00:43.922Z,5.80
2023-04-15T17:03:12.439Z,4.55
2023-04-15T17:05:42.403Z,3.40
2023-04-15T17:08:11.216Z,2.95
2023-04-15T17:10:40.041Z,2.30
2023-04-15T17:13:10.275Z,1.73
2023-04-15T17:15:39.455Z,2.25
2023-04-15T17:18:09.341Z,1.30
2023-04-15T17:20:38.405Z,1.88
2023-04-15T17:23:09.458Z,3.42
2023-04-15T17:25:37.887Z,2.83
2023-04-15T17:28:06.677Z,3.55
2023-04-15T17:30:35.075Z,2.05
2023-04-15T17:33:03.428Z,2.65
2023-04-15T17:35:51.744Z,2.63
2023-04-15T17:38:21.478Z,3.17
2023-04-15T17:40:49.734Z,2.80
2023-04-15T17:43:18.471Z,3.38
2023-04-15T17:45:47.821Z,2.50
2023-04-15T17:48:16.293Z,3.17
2023-04-15T17:50:44.672Z,3.57
2023-04-15T17:53:12.928Z,2.83
2023-04-15T17:55:42.720Z,2.88
2023-04-15T17:58:11.095Z,3.53
2023-04-15T18:00:39.382Z,2.95
2023-04-15T18:03:07.943Z,7.10
2023-04-15T18:05:36.344Z,8.70
2023-04-15T18:08:06.118Z,8.80
2023-04-15T18:10:36.088Z,9.80
2023-04-15T18:13:06.430Z,10.03
2023-04-15T18:15:36.434Z,11.70
2023-04-15T18:18:05.685Z,12.93
2023-04-15T18:20:35.083Z,13.77
2023-04-15T18:23:03.498Z,10.17
2023-04-15T18:25:34.208Z,11.67
2023-04-15T18:28:02.490Z,14.53
2023-04-15T18:30:32.329Z,16.33
2023-04-15T18:33:00.890Z,16.57
2023-04-15T18:35:30.037Z,16.43
2023-04-15T18:37:58.935Z,15.70
2023-04-15T18:40:27.507Z,15.40
2023-04-15T18:42:56.804Z,14.83
2023-04-15T18:45:25.381Z,14.53
2023-04-15T18:47:55.401Z,15.17
2023-04-15T18:50:23.711Z,16.67
2023-04-15T18:52:52.243Z,15.07
2023-04-15T18:55:21.429Z,15.07
2023-04-15T18:57:49.782Z,15.73
2023-04-15T19:00:18.434Z,15.87
2023-04-15T19:02:46.859Z,15.13
2023-04-15T19:05:16.874Z,15.93
2023-04-15T19:07:45.840Z,14.00
2023-04-15T19:10:14.344Z,13.30
2023-04-15T19:12:42.714Z,12.33
2023-04-15T19:15:11.707Z,12.10
2023-04-15T19:17:40.051Z,11.60
2023-04-15T19:20:09.257Z,8.80
2023-04-15T19:22:39.306Z,6.07
2023-04-15T19:25:08.640Z,6.63
2023-04-15T19:27:38.354Z,5.90
2023-04-15T19:30:09.089Z,5.03
2023-04-15T19:32:38.051Z,3.60
2023-04-15T19:35:10.031Z,4.13
2023-04-15T19:37:42.181Z,5.07
2023-04-15T19:40:12.799Z,3.97
2023-04-15T19:42:41.560Z,3.13
2023-04-15T19:45:10.614Z,4.27
2023-04-15T19:47:38.934Z,3.97
2023-04-15T19:50:11.383Z,4.57
2023-04-15T19:52:41.510Z,3.43
2023-04-15T19:55:10.237Z,3.40
2023-04-15T19:57:38.508Z,3.90
2023-04-15T20:00:09.392Z,3.93
2023-04-15T20:02:37.974Z,3.80
2023-04-15T20:05:09.880Z,3.77
2023-04-15T20:07:39.773Z,4.50
2023-04-15T20:10:13.092Z,4.17
2023-04-15T20:12:51.040Z,4.13
2023-04-15T20:15:23.873Z,3.93
2023-04-15T20:17:53.579Z,4.60
2023-04-15T20:20:25.913Z,4.87
2023-04-15T20:22:55.529Z,3.00
2023-04-15T20:25:26.653Z,2.37
2023-04-15T20:27:55.352Z,3.17
2023-04-15T20:30:23.629Z,3.43
2023-04-15T20:32:53.276Z,2.73
2023-04-15T20:35:22.132Z,4.10
2023-04-15T20:37:50.699Z,4.97
2023-04-15T20:40:19.401Z,4.07
2023-04-15T20:42:49.072Z,3.80
2023-04-15T20:45:17.946Z,4.27
2023-04-15T20:47:46.323Z,3.50
2023-04-15T20:50:15.179Z,4.00
2023-04-15T20:52:43.772Z,5.67
2023-04-15T20:55:12.305Z,5.07
2023-04-15T20:57:40.609Z,2.90
2023-04-15T21:00:11.462Z,2.77
2023-04-15T21:02:41.028Z,2.87
2023-04-15T21:05:13.224Z,3.73
2023-04-15T21:07:42.634Z,4.27
2023-04-15T21:10:12.182Z,3.17
2023-04-15T21:12:41.501Z,4.40
2023-04-15T21:15:12.751Z,2.67
2023-04-15T21:17:41.766Z,2.70
2023-04-15T21:20:11.167Z,3.53
2023-04-15T21:22:39.407Z,4.83
2023-04-15T21:25:08.438Z,4.47
2023-04-15T21:27:37.034Z,3.20
2023-04-15T21:30:06.675Z,3.10
2023-04-15T21:32:36.450Z,3.50
2023-04-15T21:35:05.338Z,3.37
2023-04-15T21:37:33.589Z,3.70
2023-04-15T21:40:01.937Z,3.80
2023-04-15T21:42:32.185Z,2.73
2023-04-15T21:45:01.053Z,3.27
2023-04-15T21:47:29.346Z,2.73
2023-04-15T21:49:59.204Z,2.20
2023-04-15T21:52:27.474Z,2.63
2023-04-15T21:54:55.758Z,2.27
2023-04-15T21:57:24.161Z,3.03
2023-04-15T21:59:52.468Z,2.63
2023-04-15T22:02:21.126Z,1.97
2023-04-15T22:04:49.504Z,1.87
2023-04-15T22:07:19.251Z,2.57
2023-04-15T22:09:47.583Z,2.90
2023-04-15T22:12:15.888Z,1.33
2023-04-15T22:14:44.207Z,2.83
2023-04-15T22:17:12.472Z,2.57
2023-04-15T22:19:41.910Z,2.87
2023-04-15T22:22:10.208Z,2.50
2023-04-15T22:24:41.077Z,2.13
2023-04-15T22:27:09.617Z,2.73
2023-04-15T22:29:37.978Z,2.87
2023-04-15T22:32:06.934Z,3.70
2023-04-15T22:34:36.190Z,2.23
2023-04-15T22:37:04.631Z,3.10
2023-04-15T22:39:33.271Z,2.07
2023-04-15T22:42:03.513Z,3.03
2023-04-15T22:44:31.785Z,3.10
2023-04-15T22:47:00.074Z,1.77
2023-04-15T22:49:28.393Z,2.27
2023-04-15T22:51:56.816Z,2.03
2023-04-15T22:54:25.702Z,2.87
2023-04-15T22:56:53.910Z,2.73
2023-04-15T22:59:23.569Z,3.00
2023-04-15T23:01:51.984Z,2.00
2023-04-15T23:04:24.986Z,3.43
2023-04-15T23:06:56.809Z,1.93
2023-04-15T23:09:25.181Z,2.70
2023-04-15T23:11:53.395Z,2.77
2023-04-15T23:14:23.031Z,2.80
2023-04-15T23:16:51.329Z,2.50
2023-04-15T23:19:19.629Z,3.33
2023-04-15T23:21:47.915Z,2.97
2023-04-15T23:24:16.242Z,1.97
2023-04-15T23:26:44.664Z,3.37
2023-04-15T23:29:12.953Z,2.77
2023-04-15T23:31:42.662Z,2.63
2023-04-15T23:34:11.015Z,1.77
2023-04-15T23:36:39.556Z,2.10
2023-04-15T23:39:07.953Z,2.17
2023-04-15T23:41:36.608Z,2.00
2023-04-15T23:44:04.944Z,3.33
2023-04-15T23:46:33.320Z,3.93
2023-04-15T23:49:03.067Z,4.53
2023-04-15T23:51:31.336Z,2.63
2023-04-15T23:53:59.647Z,3.03
2023-04-15T23:56:27.975Z,2.17
2023-04-15T23:58:56.239Z,3.63
